sensor_id;sensor_type;location;lat;lon;timestamp;P1;durP1;ratioP1;P2;durP2;ratioP2
19575;SDS011;41589;51.196;7.074;2022-07-18T00:01:49;1.50;;;0.73;;
19575;SDS011;41589;51.196;7.074;2022-07-18T00:06:51;0.70;;;0.60;;
19575;SDS011;41589;51.196;7.074;2022-07-18T00:11:53;1.03;;;0.80;;
19575;SDS011;41589;51.196;7.074;2022-07-18T00:16:54;0.90;;;0.70;;
19575;SDS011;41589;51.196;7.074;2022-07-18T00:21:54;0.60;;;0.60;;
19575;SDS011;41589;51.196;7.074;2022-07-18T00:26:55;1.37;;;0.63;;
19575;SDS011;41589;51.196;7.074;2022-07-18T00:31:56;0.80;;;0.63;;
19575;SDS011;41589;51.196;7.074;2022-07-18T00:36:56;1.00;;;0.80;;
19575;SDS011;41589;51.196;7.074;2022-07-18T00:41:57;0.60;;;0.60;;
19575;SDS011;41589;51.196;7.074;2022-07-18T00:47:00;0.60;;;0.60;;
19575;SDS011;41589;51.196;7.074;2022-07-18T00:52:02;1.10;;;1.10;;
19575;SDS011;41589;51.196;7.074;2022-07-18T00:57:02;0.93;;;0.67;;
19575;SDS011;41589;51.196;7.074;2022-07-18T01:02:03;1.10;;;0.90;;
19575;SDS011;41589;51.196;7.074;2022-07-18T01:07:04;0.57;;;0.57;;
19575;SDS011;41589;51.196;7.074;2022-07-18T01:12:04;0.80;;;0.70;;
19575;SDS011;41589;51.196;7.074;2022-07-18T01:17:13;0.70;;;0.70;;
19575;SDS011;41589;51.196;7.074;2022-07-18T01:22:17;0.80;;;0.60;;
19575;SDS011;41589;51.196;7.074;2022-07-18T01:27:19;1.03;;;0.70;;
19575;SDS011;41589;51.196;7.074;2022-07-18T01:32:21;0.60;;;0.60;;
19575;SDS011;41589;51.196;7.074;2022-07-18T01:37:22;0.97;;;0.70;;
19575;SDS011;41589;51.196;7.074;2022-07-18T01:42:23;0.80;;;0.80;;
19575;SDS011;41589;51.196;7.074;2022-07-18T01:47:24;0.60;;;0.60;;
19575;SDS011;41589;51.196;7.074;2022-07-18T01:52:24;0.50;;;0.50;;
19575;SDS011;41589;51.196;7.074;2022-07-18T01:57:25;0.60;;;0.60;;
19575;SDS011;41589;51.196;7.074;2022-07-18T02:02:26;1.70;;;0.70;;
19575;SDS011;41589;51.196;7.074;2022-07-18T02:07:30;1.00;;;0.87;;
19575;SDS011;41589;51.196;7.074;2022-07-18T02:12:32;0.70;;;0.70;;
19575;SDS011;41589;51.196;7.074;2022-07-18T02:17:34;0.73;;;0.70;;
19575;SDS011;41589;51.196;7.074;2022-07-18T02:22:35;1.57;;;0.70;;
19575;SDS011;41589;51.196;7.074;2022-07-18T02:27:36;0.70;;;0.70;;
19575;SDS011;41589;51.196;7.074;2022-07-18T02:32:38;0.70;;;0.70;;
19575;SDS011;41589;51.196;7.074;2022-07-18T02:37:39;0.50;;;0.50;;
19575;SDS011;41589;51.196;7.074;2022-07-18T02:42:41;0.57;;;0.50;;
19575;SDS011;41589;51.196;7.074;2022-07-18T02:47:42;1.63;;;0.70;;
19575;SDS011;41589;51.196;7.074;2022-07-18T02:52:43;0.60;;;0.60;;
19575;SDS011;41589;51.196;7.074;2022-07-18T02:57:44;0.67;;;0.67;;
19575;SDS011;41589;51.196;7.074;2022-07-18T03:02:44;0.70;;;0.70;;
19575;SDS011;41589;51.196;7.074;2022-07-18T03:07:45;0.77;;;0.67;;
19575;SDS011;41589;51.196;7.074;2022-07-18T03:12:46;0.70;;;0.70;;
19575;SDS011;41589;51.196;7.074;2022-07-18T03:17:47;0.60;;;0.60;;
19575;SDS011;41589;51.196;7.074;2022-07-18T03:22:47;0.87;;;0.60;;
19575;SDS011;41589;51.196;7.074;2022-07-18T03:27:48;0.87;;;0.80;;
19575;SDS011;41589;51.196;7.074;2022-07-18T03:32:48;0.60;;;0.60;;
19575;SDS011;41589;51.196;7.074;2022-07-18T03:37:49;0.90;;;0.60;;
19575;SDS011;41589;51.196;7.074;2022-07-18T03:42:49;2.30;;;0.80;;
19575;SDS011;41589;51.196;7.074;2022-07-18T03:47:49;0.77;;;0.73;;
19575;SDS011;41589;51.196;7.074;2022-07-18T03:52:50;0.60;;;0.60;;
19575;SDS011;41589;51.196;7.074;2022-07-18T03:57:51;2.20;;;0.83;;
19575;SDS011;41589;51.196;7.074;2022-07-18T04:02:57;1.90;;;0.63;;
19575;SDS011;41589;51.196;7.074;2022-07-18T04:07:58;2.40;;;0.60;;
19575;SDS011;41589;51.196;7.074;2022-07-18T04:13:04;0.70;;;0.70;;
19575;SDS011;41589;51.196;7.074;2022-07-18T04:18:07;0.90;;;0.70;;
19575;SDS011;41589;51.196;7.074;2022-07-18T04:23:09;0.73;;;0.73;;
19575;SDS011;41589;51.196;7.074;2022-07-18T04:28:11;0.60;;;0.60;;
19575;SDS011;41589;51.196;7.074;2022-07-18T04:33:13;2.40;;;0.63;;
19575;SDS011;41589;51.196;7.074;2022-07-18T04:38:13;1.27;;;0.87;;
19575;SDS011;41589;51.196;7.074;2022-07-18T04:43:14;1.23;;;0.80;;
19575;SDS011;41589;51.196;7.074;2022-07-18T04:48:14;0.70;;;0.70;;
19575;SDS011;41589;51.196;7.074;2022-07-18T04:53:15;1.60;;;0.70;;
19575;SDS011;41589;51.196;7.074;2022-07-18T04:58:16;0.50;;;0.50;;
19575;SDS011;41589;51.196;7.074;2022-07-18T05:03:17;2.97;;;0.73;;
19575;SDS011;41589;51.196;7.074;2022-07-18T05:08:17;0.90;;;0.73;;
19575;SDS011;41589;51.196;7.074;2022-07-18T05:13:18;0.60;;;0.60;;
19575;SDS011;41589;51.196;7.074;2022-07-18T05:18:18;0.93;;;0.80;;
19575;SDS011;41589;51.196;7.074;2022-07-18T05:23:19;0.93;;;0.73;;
19575;SDS011;41589;51.196;7.074;2022-07-18T05:28:19;1.07;;;0.73;;
19575;SDS011;41589;51.196;7.074;2022-07-18T05:33:20;0.60;;;0.60;;
19575;SDS011;41589;51.196;7.074;2022-07-18T05:38:20;0.60;;;0.60;;
19575;SDS011;41589;51.196;7.074;2022-07-18T05:43:21;0.70;;;0.70;;
19575;SDS011;41589;51.196;7.074;2022-07-18T05:48:21;0.57;;;0.57;;
19575;SDS011;41589;51.196;7.074;2022-07-18T05:53:22;0.80;;;0.80;;
19575;SDS011;41589;51.196;7.074;2022-07-18T05:58:22;0.60;;;0.60;;
19575;SDS011;41589;51.196;7.074;2022-07-18T06:03:23;0.63;;;0.60;;
19575;SDS011;41589;51.196;7.074;2022-07-18T06:08:23;0.83;;;0.80;;
19575;SDS011;41589;51.196;7.074;2022-07-18T06:13:23;0.53;;;0.53;;
19575;SDS011;41589;51.196;7.074;2022-07-18T06:18:24;0.60;;;0.60;;
19575;SDS011;41589;51.196;7.074;2022-07-18T06:23:24;1.30;;;0.70;;
19575;SDS011;41589;51.196;7.074;2022-07-18T06:28:25;1.77;;;0.60;;
19575;SDS011;41589;51.196;7.074;2022-07-18T06:33:25;0.47;;;0.47;;
19575;SDS011;41589;51.196;7.074;2022-07-18T06:38:27;1.00;;;0.70;;
19575;SDS011;41589;51.196;7.074;2022-07-18T06:43:27;0.87;;;0.53;;
19575;SDS011;41589;51.196;7.074;2022-07-18T06:48:29;0.67;;;0.67;;
19575;SDS011;41589;51.196;7.074;2022-07-18T06:53:33;0.83;;;0.70;;
19575;SDS011;41589;51.196;7.074;2022-07-18T06:58:34;3.20;;;0.60;;
19575;SDS011;41589;51.196;7.074;2022-07-18T07:03:34;0.80;;;0.50;;
19575;SDS011;41589;51.196;7.074;2022-07-18T07:08:34;0.60;;;0.60;;
19575;SDS011;41589;51.196;7.074;2022-07-18T07:13:35;0.73;;;0.50;;
19575;SDS011;41589;51.196;7.074;2022-07-18T07:18:35;1.03;;;0.70;;
19575;SDS011;41589;51.196;7.074;2022-07-18T07:23:36;1.53;;;0.60;;
19575;SDS011;41589;51.196;7.074;2022-07-18T07:28:36;3.37;;;0.97;;
19575;SDS011;41589;51.196;7.074;2022-07-18T07:33:37;2.83;;;1.27;;
19575;SDS011;41589;51.196;7.074;2022-07-18T07:38:37;1.60;;;0.70;;
19575;SDS011;41589;51.196;7.074;2022-07-18T07:43:37;0.90;;;0.90;;
19575;SDS011;41589;51.196;7.074;2022-07-18T07:48:38;0.83;;;0.67;;
19575;SDS011;41589;51.196;7.074;2022-07-18T07:53:39;0.57;;;0.57;;
19575;SDS011;41589;51.196;7.074;2022-07-18T07:58:39;0.60;;;0.60;;
19575;SDS011;41589;51.196;7.074;2022-07-18T08:03:39;3.03;;;0.90;;
19575;SDS011;41589;51.196;7.074;2022-07-18T08:08:40;0.70;;;0.70;;
19575;SDS011;41589;51.196;7.074;2022-07-18T08:13:40;0.77;;;0.70;;
19575;SDS011;41589;51.196;7.074;2022-07-18T08:18:41;1.10;;;0.73;;
19575;SDS011;41589;51.196;7.074;2022-07-18T08:23:42;0.80;;;0.50;;
19575;SDS011;41589;51.196;7.074;2022-07-18T08:28:45;1.43;;;0.80;;
19575;SDS011;41589;51.196;7.074;2022-07-18T08:33:45;2.07;;;0.80;;
19575;SDS011;41589;51.196;7.074;2022-07-18T08:38:49;1.07;;;0.63;;
19575;SDS011;41589;51.196;7.074;2022-07-18T08:43:54;1.57;;;0.60;;
19575;SDS011;41589;51.196;7.074;2022-07-18T08:49:00;1.20;;;0.67;;
19575;SDS011;41589;51.196;7.074;2022-07-18T08:54:07;1.63;;;0.60;;
19575;SDS011;41589;51.196;7.074;2022-07-18T08:59:08;1.13;;;0.77;;
19575;SDS011;41589;51.196;7.074;2022-07-18T09:04:15;1.10;;;0.60;;
19575;SDS011;41589;51.196;7.074;2022-07-18T09:09:38;2.70;;;0.70;;
19575;SDS011;41589;51.196;7.074;2022-07-18T09:14:51;0.60;;;0.60;;
19575;SDS011;41589;51.196;7.074;2022-07-18T09:20:10;1.00;;;0.70;;
19575;SDS011;41589;51.196;7.074;2022-07-18T09:25:17;0.63;;;0.60;;
19575;SDS011;41589;51.196;7.074;2022-07-18T09:30:23;0.83;;;0.60;;
19575;SDS011;41589;51.196;7.074;2022-07-18T09:40:38;2.00;;;0.80;;
19575;SDS011;41589;51.196;7.074;2022-07-18T09:45:51;0.67;;;0.67;;
19575;SDS011;41589;51.196;7.074;2022-07-18T09:50:58;0.80;;;0.77;;
19575;SDS011;41589;51.196;7.074;2022-07-18T09:56:22;0.83;;;0.63;;
19575;SDS011;41589;51.196;7.074;2022-07-18T10:01:34;1.00;;;0.90;;
19575;SDS011;41589;51.196;7.074;2022-07-18T10:06:35;0.73;;;0.73;;
19575;SDS011;41589;51.196;7.074;2022-07-18T10:11:35;1.00;;;0.70;;
19575;SDS011;41589;51.196;7.074;2022-07-18T10:16:36;0.77;;;0.70;;
19575;SDS011;41589;51.196;7.074;2022-07-18T10:21:38;0.70;;;0.70;;
19575;SDS011;41589;51.196;7.074;2022-07-18T10:26:39;2.20;;;0.77;;
19575;SDS011;41589;51.196;7.074;2022-07-18T10:31:42;1.23;;;0.83;;
19575;SDS011;41589;51.196;7.074;2022-07-18T10:52:03;0.80;;;0.80;;
19575;SDS011;41589;51.196;7.074;2022-07-18T10:57:04;2.10;;;0.93;;
19575;SDS011;41589;51.196;7.074;2022-07-18T11:02:07;0.60;;;0.60;;
19575;SDS011;41589;51.196;7.074;2022-07-18T11:07:12;0.97;;;0.73;;
19575;SDS011;41589;51.196;7.074;2022-07-18T11:17:30;1.50;;;0.70;;
19575;SDS011;41589;51.196;7.074;2022-07-18T11:22:56;0.70;;;0.70;;
19575;SDS011;41589;51.196;7.074;2022-07-18T11:27:56;0.97;;;0.73;;
19575;SDS011;41589;51.196;7.074;2022-07-18T11:32:57;1.83;;;1.00;;
19575;SDS011;41589;51.196;7.074;2022-07-18T11:38:03;0.73;;;0.73;;
19575;SDS011;41589;51.196;7.074;2022-07-18T11:43:04;0.80;;;0.60;;
19575;SDS011;41589;51.196;7.074;2022-07-18T11:48:04;1.43;;;0.70;;
19575;SDS011;41589;51.196;7.074;2022-07-18T11:53:05;2.10;;;0.80;;
19575;SDS011;41589;51.196;7.074;2022-07-18T11:58:09;1.27;;;0.80;;
19575;SDS011;41589;51.196;7.074;2022-07-18T12:03:15;1.33;;;0.77;;
19575;SDS011;41589;51.196;7.074;2022-07-18T12:18:52;0.93;;;0.90;;
19575;SDS011;41589;51.196;7.074;2022-07-18T12:23:54;1.30;;;0.77;;
19575;SDS011;41589;51.196;7.074;2022-07-18T12:29:07;1.33;;;0.87;;
19575;SDS011;41589;51.196;7.074;2022-07-18T12:34:12;0.97;;;0.70;;
19575;SDS011;41589;51.196;7.074;2022-07-18T12:39:29;1.73;;;0.73;;
19575;SDS011;41589;51.196;7.074;2022-07-18T12:44:32;1.93;;;0.90;;
19575;SDS011;41589;51.196;7.074;2022-07-18T12:49:32;0.83;;;0.80;;
19575;SDS011;41589;51.196;7.074;2022-07-18T12:54:33;0.90;;;0.70;;
19575;SDS011;41589;51.196;7.074;2022-07-18T12:59:33;2.03;;;0.90;;
19575;SDS011;41589;51.196;7.074;2022-07-18T13:04:34;1.37;;;0.80;;
19575;SDS011;41589;51.196;7.074;2022-07-18T13:09:34;0.90;;;0.90;;
19575;SDS011;41589;51.196;7.074;2022-07-18T13:14:34;0.70;;;0.70;;
19575;SDS011;41589;51.196;7.074;2022-07-18T13:19:35;0.77;;;0.77;;
19575;SDS011;41589;51.196;7.074;2022-07-18T13:24:38;0.80;;;0.80;;
19575;SDS011;41589;51.196;7.074;2022-07-18T13:29:38;0.63;;;0.63;;
19575;SDS011;41589;51.196;7.074;2022-07-18T13:34:39;1.50;;;0.80;;
19575;SDS011;41589;51.196;7.074;2022-07-18T13:39:39;1.90;;;0.90;;
19575;SDS011;41589;51.196;7.074;2022-07-18T13:44:40;1.43;;;0.80;;
19575;SDS011;41589;51.196;7.074;2022-07-18T13:49:47;1.57;;;0.80;;
19575;SDS011;41589;51.196;7.074;2022-07-18T13:54:56;2.60;;;0.87;;
19575;SDS011;41589;51.196;7.074;2022-07-18T13:59:57;1.03;;;0.80;;
19575;SDS011;41589;51.196;7.074;2022-07-18T14:04:57;0.77;;;0.77;;
19575;SDS011;41589;51.196;7.074;2022-07-18T14:09:57;1.13;;;1.03;;
19575;SDS011;41589;51.196;7.074;2022-07-18T14:14:59;2.10;;;0.80;;
19575;SDS011;41589;51.196;7.074;2022-07-18T14:19:59;0.93;;;0.83;;
19575;SDS011;41589;51.196;7.074;2022-07-18T14:24:59;0.97;;;0.77;;
19575;SDS011;41589;51.196;7.074;2022-07-18T14:30:00;1.80;;;1.23;;
19575;SDS011;41589;51.196;7.074;2022-07-18T14:35:00;1.20;;;0.77;;
19575;SDS011;41589;51.196;7.074;2022-07-18T14:40:01;1.70;;;0.87;;
19575;SDS011;41589;51.196;7.074;2022-07-18T14:45:01;1.13;;;0.80;;
19575;SDS011;41589;51.196;7.074;2022-07-18T14:50:03;1.17;;;0.83;;
19575;SDS011;41589;51.196;7.074;2022-07-18T14:55:05;2.30;;;1.00;;
19575;SDS011;41589;51.196;7.074;2022-07-18T15:00:07;0.83;;;0.83;;
19575;SDS011;41589;51.196;7.074;2022-07-18T15:05:09;1.20;;;0.90;;
19575;SDS011;41589;51.196;7.074;2022-07-18T15:10:09;1.20;;;0.90;;
19575;SDS011;41589;51.196;7.074;2022-07-18T15:15:10;1.33;;;0.67;;
19575;SDS011;41589;51.196;7.074;2022-07-18T15:20:10;2.17;;;0.70;;
19575;SDS011;41589;51.196;7.074;2022-07-18T15:25:11;1.47;;;0.70;;
19575;SDS011;41589;51.196;7.074;2022-07-18T15:30:11;2.00;;;1.17;;
19575;SDS011;41589;51.196;7.074;2022-07-18T15:35:12;2.33;;;0.97;;
19575;SDS011;41589;51.196;7.074;2022-07-18T15:40:12;1.93;;;0.93;;
19575;SDS011;41589;51.196;7.074;2022-07-18T15:45:13;0.70;;;0.70;;
19575;SDS011;41589;51.196;7.074;2022-07-18T15:50:16;1.10;;;0.70;;
19575;SDS011;41589;51.196;7.074;2022-07-18T15:55:17;1.23;;;0.80;;
19575;SDS011;41589;51.196;7.074;2022-07-18T16:00:17;0.90;;;0.90;;
19575;SDS011;41589;51.196;7.074;2022-07-18T16:05:18;1.40;;;0.63;;
19575;SDS011;41589;51.196;7.074;2022-07-18T16:10:18;1.33;;;1.03;;
19575;SDS011;41589;51.196;7.074;2022-07-18T16:15:19;1.53;;;1.00;;
19575;SDS011;41589;51.196;7.074;2022-07-18T16:20:19;1.20;;;0.87;;
19575;SDS011;41589;51.196;7.074;2022-07-18T16:25:20;1.67;;;0.90;;
19575;SDS011;41589;51.196;7.074;2022-07-18T16:30:20;1.80;;;0.93;;
19575;SDS011;41589;51.196;7.074;2022-07-18T16:35:21;1.40;;;1.00;;
19575;SDS011;41589;51.196;7.074;2022-07-18T16:40:21;2.47;;;0.67;;
19575;SDS011;41589;51.196;7.074;2022-07-18T16:45:21;1.97;;;0.70;;
19575;SDS011;41589;51.196;7.074;2022-07-18T16:50:24;2.67;;;1.20;;
19575;SDS011;41589;51.196;7.074;2022-07-18T16:55:25;1.07;;;0.83;;
19575;SDS011;41589;51.196;7.074;2022-07-18T17:00:26;1.13;;;0.83;;
19575;SDS011;41589;51.196;7.074;2022-07-18T17:05:27;0.77;;;0.67;;
19575;SDS011;41589;51.196;7.074;2022-07-18T17:10:28;0.93;;;0.90;;
19575;SDS011;41589;51.196;7.074;2022-07-18T17:15:29;1.40;;;0.90;;
19575;SDS011;41589;51.196;7.074;2022-07-18T17:20:29;0.73;;;0.70;;
19575;SDS011;41589;51.196;7.074;2022-07-18T17:25:30;0.70;;;0.70;;
19575;SDS011;41589;51.196;7.074;2022-07-18T17:30:37;1.33;;;0.90;;
19575;SDS011;41589;51.196;7.074;2022-07-18T17:35:39;1.90;;;0.93;;
19575;SDS011;41589;51.196;7.074;2022-07-18T17:40:40;2.27;;;1.20;;
19575;SDS011;41589;51.196;7.074;2022-07-18T17:45:41;1.00;;;0.80;;
19575;SDS011;41589;51.196;7.074;2022-07-18T17:50:43;1.40;;;0.80;;
19575;SDS011;41589;51.196;7.074;2022-07-18T17:55:46;3.37;;;0.80;;
19575;SDS011;41589;51.196;7.074;2022-07-18T18:00:47;1.87;;;0.93;;
19575;SDS011;41589;51.196;7.074;2022-07-18T18:05:48;1.67;;;1.00;;
19575;SDS011;41589;51.196;7.074;2022-07-18T18:10:52;1.63;;;0.80;;
19575;SDS011;41589;51.196;7.074;2022-07-18T18:16:14;1.53;;;0.80;;
19575;SDS011;41589;51.196;7.074;2022-07-18T18:21:15;1.47;;;1.07;;
19575;SDS011;41589;51.196;7.074;2022-07-18T18:26:17;1.37;;;0.87;;
19575;SDS011;41589;51.196;7.074;2022-07-18T18:31:48;1.23;;;0.90;;
19575;SDS011;41589;51.196;7.074;2022-07-18T18:36:49;0.80;;;0.80;;
19575;SDS011;41589;51.196;7.074;2022-07-18T18:41:59;0.70;;;0.70;;
19575;SDS011;41589;51.196;7.074;2022-07-18T18:47:02;2.57;;;0.93;;
19575;SDS011;41589;51.196;7.074;2022-07-18T18:52:04;1.10;;;0.80;;
19575;SDS011;41589;51.196;7.074;2022-07-18T18:57:06;1.40;;;1.30;;
19575;SDS011;41589;51.196;7.074;2022-07-18T19:02:08;2.97;;;1.43;;
19575;SDS011;41589;51.196;7.074;2022-07-18T19:07:09;3.17;;;1.43;;
19575;SDS011;41589;51.196;7.074;2022-07-18T19:12:11;2.57;;;1.50;;
19575;SDS011;41589;51.196;7.074;2022-07-18T19:17:12;1.07;;;1.07;;
19575;SDS011;41589;51.196;7.074;2022-07-18T19:22:13;1.17;;;1.00;;
19575;SDS011;41589;51.196;7.074;2022-07-18T19:27:14;4.03;;;1.40;;
19575;SDS011;41589;51.196;7.074;2022-07-18T19:32:18;2.00;;;1.10;;
19575;SDS011;41589;51.196;7.074;2022-07-18T19:37:20;1.77;;;1.20;;
19575;SDS011;41589;51.196;7.074;2022-07-18T19:42:21;1.63;;;1.10;;
19575;SDS011;41589;51.196;7.074;2022-07-18T19:47:22;3.27;;;1.13;;
19575;SDS011;41589;51.196;7.074;2022-07-18T19:52:22;1.13;;;1.07;;
19575;SDS011;41589;51.196;7.074;2022-07-18T19:57:23;1.20;;;1.10;;
19575;SDS011;41589;51.196;7.074;2022-07-18T20:02:24;1.70;;;1.60;;
19575;SDS011;41589;51.196;7.074;2022-07-18T20:07:24;2.53;;;1.53;;
19575;SDS011;41589;51.196;7.074;2022-07-18T20:12:30;4.30;;;1.40;;
19575;SDS011;41589;51.196;7.074;2022-07-18T20:17:33;2.23;;;1.80;;
19575;SDS011;41589;51.196;7.074;2022-07-18T20:22:36;1.83;;;1.50;;
19575;SDS011;41589;51.196;7.074;2022-07-18T20:27:38;1.20;;;1.10;;
19575;SDS011;41589;51.196;7.074;2022-07-18T20:32:39;2.77;;;1.10;;
19575;SDS011;41589;51.196;7.074;2022-07-18T20:37:42;2.20;;;1.43;;
19575;SDS011;41589;51.196;7.074;2022-07-18T20:42:46;1.13;;;1.03;;
19575;SDS011;41589;51.196;7.074;2022-07-18T20:47:49;1.80;;;1.33;;
19575;SDS011;41589;51.196;7.074;2022-07-18T20:52:50;1.23;;;1.10;;
19575;SDS011;41589;51.196;7.074;2022-07-18T20:57:54;1.50;;;1.37;;
19575;SDS011;41589;51.196;7.074;2022-07-18T21:02:54;2.20;;;1.17;;
19575;SDS011;41589;51.196;7.074;2022-07-18T21:07:55;2.57;;;1.20;;
19575;SDS011;41589;51.196;7.074;2022-07-18T21:12:55;1.10;;;1.00;;
19575;SDS011;41589;51.196;7.074;2022-07-18T21:17:56;1.67;;;0.90;;
19575;SDS011;41589;51.196;7.074;2022-07-18T21:22:56;1.30;;;1.20;;
19575;SDS011;41589;51.196;7.074;2022-07-18T21:27:57;1.47;;;0.97;;
19575;SDS011;41589;51.196;7.074;2022-07-18T21:32:57;1.90;;;1.10;;
19575;SDS011;41589;51.196;7.074;2022-07-18T21:37:58;2.30;;;1.13;;
19575;SDS011;41589;51.196;7.074;2022-07-18T21:42:58;1.93;;;1.00;;
19575;SDS011;41589;51.196;7.074;2022-07-18T21:47:59;0.80;;;0.80;;
19575;SDS011;41589;51.196;7.074;2022-07-18T21:52:59;1.77;;;1.20;;
19575;SDS011;41589;51.196;7.074;2022-07-18T21:57:59;1.17;;;1.10;;
19575;SDS011;41589;51.196;7.074;2022-07-18T22:03:00;3.63;;;0.90;;
19575;SDS011;41589;51.196;7.074;2022-07-18T22:08:00;1.53;;;1.03;;
19575;SDS011;41589;51.196;7.074;2022-07-18T22:13:01;1.50;;;0.90;;
19575;SDS011;41589;51.196;7.074;2022-07-18T22:18:01;1.13;;;0.90;;
19575;SDS011;41589;51.196;7.074;2022-07-18T22:23:02;0.73;;;0.70;;
19575;SDS011;41589;51.196;7.074;2022-07-18T22:28:03;2.83;;;1.20;;
19575;SDS011;41589;51.196;7.074;2022-07-18T22:33:04;3.67;;;1.10;;
19575;SDS011;41589;51.196;7.074;2022-07-18T22:38:04;1.87;;;1.07;;
19575;SDS011;41589;51.196;7.074;2022-07-18T22:43:05;1.83;;;1.10;;
19575;SDS011;41589;51.196;7.074;2022-07-18T22:48:05;1.40;;;1.30;;
19575;SDS011;41589;51.196;7.074;2022-07-18T22:53:06;2.13;;;1.20;;
19575;SDS011;41589;51.196;7.074;2022-07-18T22:58:06;1.10;;;0.97;;
19575;SDS011;41589;51.196;7.074;2022-07-18T23:03:07;0.90;;;0.90;;
19575;SDS011;41589;51.196;7.074;2022-07-18T23:08:09;1.97;;;0.77;;
19575;SDS011;41589;51.196;7.074;2022-07-18T23:13:12;0.80;;;0.80;;
19575;SDS011;41589;51.196;7.074;2022-07-18T23:18:13;1.10;;;0.90;;
19575;SDS011;41589;51.196;7.074;2022-07-18T23:23:13;0.93;;;0.83;;
19575;SDS011;41589;51.196;7.074;2022-07-18T23:28:14;0.80;;;0.80;;
19575;SDS011;41589;51.196;7.074;2022-07-18T23:33:15;0.97;;;0.97;;
19575;SDS011;41589;51.196;7.074;2022-07-18T23:38:15;2.53;;;1.00;;
19575;SDS011;41589;51.196;7.074;2022-07-18T23:43:16;2.80;;;1.00;;
19575;SDS011;41589;51.196;7.074;2022-07-18T23:48:16;1.53;;;0.90;;
19575;SDS011;41589;51.196;7.074;2022-07-18T23:53:17;1.23;;;1.00;;
19575;SDS011;41589;51.196;7.074;2022-07-18T23:58:17;1.23;;;0.90;;
